sensor_id;sensor_type;location;lat;lon;timestamp;temperature;humidity
8945;DHT22;4507;40.232;29.132;2022-11-20T00:01:31;19.30;59.40
8945;DHT22;4507;40.232;29.132;2022-11-20T00:04:00;19.30;59.70
8945;DHT22;4507;40.232;29.132;2022-11-20T00:06:30;19.20;59.90
8945;DHT22;4507;40.232;29.132;2022-11-20T00:08:59;19.20;60.20
8945;DHT22;4507;40.232;29.132;2022-11-20T00:11:29;19.20;60.50
8945;DHT22;4507;40.232;29.132;2022-11-20T00:13:59;19.20;60.70
8945;DHT22;4507;40.232;29.132;2022-11-20T00:16:28;19.20;60.90
8945;DHT22;4507;40.232;29.132;2022-11-20T00:18:58;19.10;61.00
8945;DHT22;4507;40.232;29.132;2022-11-20T00:21:27;19.10;61.20
8945;DHT22;4507;40.232;29.132;2022-11-20T00:23:57;19.00;61.30
8945;DHT22;4507;40.232;29.132;2022-11-20T00:26:26;19.10;61.50
8945;DHT22;4507;40.232;29.132;2022-11-20T00:28:56;19.00;61.50
8945;DHT22;4507;40.232;29.132;2022-11-20T00:31:25;19.00;61.70
8945;DHT22;4507;40.232;29.132;2022-11-20T00:33:54;19.00;61.90
8945;DHT22;4507;40.232;29.132;2022-11-20T00:36:23;18.90;61.90
8945;DHT22;4507;40.232;29.132;2022-11-20T00:38:52;18.90;62.00
8945;DHT22;4507;40.232;29.132;2022-11-20T00:41:23;19.00;62.20
8945;DHT22;4507;40.232;29.132;2022-11-20T00:43:52;18.90;62.20
8945;DHT22;4507;40.232;29.132;2022-11-20T00:46:22;18.80;62.20
8945;DHT22;4507;40.232;29.132;2022-11-20T00:48:50;18.90;62.50
8945;DHT22;4507;40.232;29.132;2022-11-20T00:51:20;18.80;63.20
8945;DHT22;4507;40.232;29.132;2022-11-20T00:53:49;18.80;62.50
8945;DHT22;4507;40.232;29.132;2022-11-20T00:56:18;18.70;62.60
8945;DHT22;4507;40.232;29.132;2022-11-20T00:58:48;18.70;62.80
8945;DHT22;4507;40.232;29.132;2022-11-20T01:01:18;18.70;63.00
8945;DHT22;4507;40.232;29.132;2022-11-20T01:03:47;18.70;63.20
8945;DHT22;4507;40.232;29.132;2022-11-20T01:06:17;18.70;63.30
8945;DHT22;4507;40.232;29.132;2022-11-20T01:08:46;18.70;63.30
8945;DHT22;4507;40.232;29.132;2022-11-20T01:11:16;18.70;63.50
8945;DHT22;4507;40.232;29.132;2022-11-20T01:13:44;18.60;64.20
8945;DHT22;4507;40.232;29.132;2022-11-20T01:16:15;18.60;63.40
8945;DHT22;4507;40.232;29.132;2022-11-20T01:18:45;18.60;63.50
8945;DHT22;4507;40.232;29.132;2022-11-20T01:21:14;18.60;63.70
8945;DHT22;4507;40.232;29.132;2022-11-20T01:23:43;18.60;63.90
8945;DHT22;4507;40.232;29.132;2022-11-20T01:26:13;18.50;64.00
8945;DHT22;4507;40.232;29.132;2022-11-20T01:29:00;18.50;64.20
8945;DHT22;4507;40.232;29.132;2022-11-20T01:31:31;18.50;64.30
8945;DHT22;4507;40.232;29.132;2022-11-20T01:34:01;18.50;64.40
8945;DHT22;4507;40.232;29.132;2022-11-20T01:36:30;18.50;64.50
8945;DHT22;4507;40.232;29.132;2022-11-20T01:39:00;18.50;64.60
8945;DHT22;4507;40.232;29.132;2022-11-20T01:41:29;18.50;64.60
8945;DHT22;4507;40.232;29.132;2022-11-20T01:44:17;18.40;64.50
8945;DHT22;4507;40.232;29.132;2022-11-20T01:46:50;18.40;64.60
8945;DHT22;4507;40.232;29.132;2022-11-20T01:49:21;18.40;64.80
8945;DHT22;4507;40.232;29.132;2022-11-20T01:51:52;18.40;65.10
8945;DHT22;4507;40.232;29.132;2022-11-20T01:54:23;18.40;65.30
8945;DHT22;4507;40.232;29.132;2022-11-20T01:56:53;18.40;65.40
8945;DHT22;4507;40.232;29.132;2022-11-20T01:59:23;18.50;65.40
8945;DHT22;4507;40.232;29.132;2022-11-20T02:01:55;18.60;65.20
8945;DHT22;4507;40.232;29.132;2022-11-20T02:04:24;18.60;65.10
8945;DHT22;4507;40.232;29.132;2022-11-20T02:06:53;18.70;65.00
8945;DHT22;4507;40.232;29.132;2022-11-20T02:09:23;18.60;64.50
8945;DHT22;4507;40.232;29.132;2022-11-20T02:11:52;18.60;64.40
8945;DHT22;4507;40.232;29.132;2022-11-20T02:14:21;18.60;64.50
8945;DHT22;4507;40.232;29.132;2022-11-20T02:16:48;18.60;64.50
8945;DHT22;4507;40.232;29.132;2022-11-20T02:19:21;18.50;64.30
8945;DHT22;4507;40.232;29.132;2022-11-20T02:21:53;18.50;64.20
8945;DHT22;4507;40.232;29.132;2022-11-20T02:24:26;18.50;64.30
8945;DHT22;4507;40.232;29.132;2022-11-20T02:26:55;18.50;64.40
8945;DHT22;4507;40.232;29.132;2022-11-20T02:29:26;18.50;64.50
8945;DHT22;4507;40.232;29.132;2022-11-20T02:31:55;18.50;64.60
8945;DHT22;4507;40.232;29.132;2022-11-20T02:34:25;18.50;64.50
8945;DHT22;4507;40.232;29.132;2022-11-20T02:36:53;18.50;64.50
8945;DHT22;4507;40.232;29.132;2022-11-20T02:39:22;18.50;64.60
8945;DHT22;4507;40.232;29.132;2022-11-20T02:41:54;18.60;64.70
8945;DHT22;4507;40.232;29.132;2022-11-20T02:44:23;18.50;64.50
8945;DHT22;4507;40.232;29.132;2022-11-20T02:46:52;18.60;64.40
8945;DHT22;4507;40.232;29.132;2022-11-20T02:49:21;18.70;64.20
8945;DHT22;4507;40.232;29.132;2022-11-20T02:51:50;18.60;63.90
8945;DHT22;4507;40.232;29.132;2022-11-20T02:54:18;18.60;63.90
8945;DHT22;4507;40.232;29.132;2022-11-20T02:56:47;18.60;63.90
8945;DHT22;4507;40.232;29.132;2022-11-20T02:59:17;18.50;63.80
8945;DHT22;4507;40.232;29.132;2022-11-20T03:01:46;18.50;64.00
8945;DHT22;4507;40.232;29.132;2022-11-20T03:04:14;18.50;64.10
8945;DHT22;4507;40.232;29.132;2022-11-20T03:06:43;18.50;64.10
8945;DHT22;4507;40.232;29.132;2022-11-20T03:09:12;18.50;64.00
8945;DHT22;4507;40.232;29.132;2022-11-20T03:11:40;18.50;64.10
8945;DHT22;4507;40.232;29.132;2022-11-20T03:14:09;18.50;64.10
8945;DHT22;4507;40.232;29.132;2022-11-20T03:16:39;18.50;64.30
8945;DHT22;4507;40.232;29.132;2022-11-20T03:19:08;18.60;64.50
8945;DHT22;4507;40.232;29.132;2022-11-20T03:21:36;18.60;64.50
8945;DHT22;4507;40.232;29.132;2022-11-20T03:24:05;18.60;64.40
8945;DHT22;4507;40.232;29.132;2022-11-20T03:26:34;18.60;64.10
8945;DHT22;4507;40.232;29.132;2022-11-20T03:29:03;18.60;64.00
8945;DHT22;4507;40.232;29.132;2022-11-20T03:31:33;18.60;64.00
8945;DHT22;4507;40.232;29.132;2022-11-20T03:34:03;18.60;63.90
8945;DHT22;4507;40.232;29.132;2022-11-20T03:36:32;18.50;63.70
8945;DHT22;4507;40.232;29.132;2022-11-20T03:39:00;18.50;63.90
8945;DHT22;4507;40.232;29.132;2022-11-20T03:41:30;18.50;63.90
8945;DHT22;4507;40.232;29.132;2022-11-20T03:43:59;18.50;63.60
8945;DHT22;4507;40.232;29.132;2022-11-20T03:46:28;18.40;63.50
8945;DHT22;4507;40.232;29.132;2022-11-20T03:48:57;18.50;63.80
8945;DHT22;4507;40.232;29.132;2022-11-20T03:51:27;18.50;64.00
8945;DHT22;4507;40.232;29.132;2022-11-20T03:53:57;18.60;64.00
8945;DHT22;4507;40.232;29.132;2022-11-20T03:56:27;18.70;64.00
8945;DHT22;4507;40.232;29.132;2022-11-20T03:58:56;18.70;63.80
8945;DHT22;4507;40.232;29.132;2022-11-20T04:01:25;18.80;63.80
8945;DHT22;4507;40.232;29.132;2022-11-20T04:03:54;18.70;63.60
8945;DHT22;4507;40.232;29.132;2022-11-20T04:06:24;18.70;63.60
8945;DHT22;4507;40.232;29.132;2022-11-20T04:08:55;18.70;63.70
8945;DHT22;4507;40.232;29.132;2022-11-20T04:11:26;18.70;63.70
8945;DHT22;4507;40.232;29.132;2022-11-20T04:14:13;18.60;63.60
8945;DHT22;4507;40.232;29.132;2022-11-20T04:16:42;18.60;63.60
8945;DHT22;4507;40.232;29.132;2022-11-20T04:19:11;18.50;63.40
8945;DHT22;4507;40.232;29.132;2022-11-20T04:21:40;18.40;63.40
8945;DHT22;4507;40.232;29.132;2022-11-20T04:24:10;18.40;63.50
8945;DHT22;4507;40.232;29.132;2022-11-20T04:26:39;18.30;63.70
8945;DHT22;4507;40.232;29.132;2022-11-20T04:29:09;18.20;63.70
8945;DHT22;4507;40.232;29.132;2022-11-20T04:31:38;18.10;63.80
8945;DHT22;4507;40.232;29.132;2022-11-20T04:34:07;18.00;64.00
8945;DHT22;4507;40.232;29.132;2022-11-20T04:36:35;18.00;64.20
8945;DHT22;4507;40.232;29.132;2022-11-20T04:39:05;17.90;64.40
8945;DHT22;4507;40.232;29.132;2022-11-20T04:41:35;17.90;64.80
8945;DHT22;4507;40.232;29.132;2022-11-20T04:44:05;17.80;65.00
8945;DHT22;4507;40.232;29.132;2022-11-20T04:46:34;17.80;65.20
8945;DHT22;4507;40.232;29.132;2022-11-20T04:49:03;17.80;65.30
8945;DHT22;4507;40.232;29.132;2022-11-20T04:51:32;17.80;65.40
8945;DHT22;4507;40.232;29.132;2022-11-20T04:54:01;17.80;65.60
8945;DHT22;4507;40.232;29.132;2022-11-20T04:56:29;17.90;65.60
8945;DHT22;4507;40.232;29.132;2022-11-20T04:59:01;17.90;65.50
8945;DHT22;4507;40.232;29.132;2022-11-20T05:01:30;18.00;65.40
8945;DHT22;4507;40.232;29.132;2022-11-20T05:03:59;18.00;65.20
8945;DHT22;4507;40.232;29.132;2022-11-20T05:06:28;18.00;65.10
8945;DHT22;4507;40.232;29.132;2022-11-20T05:08:56;18.00;65.10
8945;DHT22;4507;40.232;29.132;2022-11-20T05:11:25;18.00;64.70
8945;DHT22;4507;40.232;29.132;2022-11-20T05:13:57;18.10;64.80
8945;DHT22;4507;40.232;29.132;2022-11-20T05:16:28;18.10;64.60
8945;DHT22;4507;40.232;29.132;2022-11-20T05:18:57;18.20;64.00
8945;DHT22;4507;40.232;29.132;2022-11-20T05:21:25;18.20;64.10
8945;DHT22;4507;40.232;29.132;2022-11-20T05:23:54;18.40;64.20
8945;DHT22;4507;40.232;29.132;2022-11-20T05:26:23;18.50;63.80
8945;DHT22;4507;40.232;29.132;2022-11-20T05:28:51;18.50;63.20
8945;DHT22;4507;40.232;29.132;2022-11-20T05:31:20;18.60;62.90
8945;DHT22;4507;40.232;29.132;2022-11-20T05:33:56;18.70;62.80
8945;DHT22;4507;40.232;29.132;2022-11-20T05:36:25;18.70;62.50
8945;DHT22;4507;40.232;29.132;2022-11-20T05:38:59;18.70;62.50
8945;DHT22;4507;40.232;29.132;2022-11-20T05:41:28;18.70;62.40
8945;DHT22;4507;40.232;29.132;2022-11-20T05:43:56;18.70;62.40
8945;DHT22;4507;40.232;29.132;2022-11-20T05:46:26;18.70;62.30
8945;DHT22;4507;40.232;29.132;2022-11-20T05:49:15;18.70;62.20
8945;DHT22;4507;40.232;29.132;2022-11-20T05:51:43;18.80;62.10
8945;DHT22;4507;40.232;29.132;2022-11-20T05:54:12;18.80;62.10
8945;DHT22;4507;40.232;29.132;2022-11-20T05:56:40;19.00;62.10
8945;DHT22;4507;40.232;29.132;2022-11-20T05:59:09;19.10;61.70
8945;DHT22;4507;40.232;29.132;2022-11-20T06:01:38;19.20;61.40
8945;DHT22;4507;40.232;29.132;2022-11-20T06:04:06;19.20;61.20
8945;DHT22;4507;40.232;29.132;2022-11-20T06:06:36;19.40;61.20
8945;DHT22;4507;40.232;29.132;2022-11-20T06:09:23;19.40;61.10
8945;DHT22;4507;40.232;29.132;2022-11-20T06:11:52;19.50;61.00
8945;DHT22;4507;40.232;29.132;2022-11-20T06:14:20;19.50;60.60
8945;DHT22;4507;40.232;29.132;2022-11-20T06:16:49;19.50;60.40
8945;DHT22;4507;40.232;29.132;2022-11-20T06:19:17;19.60;60.30
8945;DHT22;4507;40.232;29.132;2022-11-20T06:22:06;19.60;60.40
8945;DHT22;4507;40.232;29.132;2022-11-20T06:24:35;19.60;60.10
8945;DHT22;4507;40.232;29.132;2022-11-20T06:27:04;19.60;60.00
8945;DHT22;4507;40.232;29.132;2022-11-20T06:29:32;19.60;60.00
8945;DHT22;4507;40.232;29.132;2022-11-20T06:32:01;19.60;60.00
8945;DHT22;4507;40.232;29.132;2022-11-20T06:34:30;19.60;60.10
8945;DHT22;4507;40.232;29.132;2022-11-20T06:36:59;19.50;60.00
8945;DHT22;4507;40.232;29.132;2022-11-20T06:39:29;19.60;60.00
8945;DHT22;4507;40.232;29.132;2022-11-20T06:41:57;19.70;60.00
8945;DHT22;4507;40.232;29.132;2022-11-20T06:44:26;19.80;59.60
8945;DHT22;4507;40.232;29.132;2022-11-20T06:46:54;19.90;59.60
8945;DHT22;4507;40.232;29.132;2022-11-20T06:49:23;20.00;59.50
8945;DHT22;4507;40.232;29.132;2022-11-20T06:51:52;20.10;59.20
8945;DHT22;4507;40.232;29.132;2022-11-20T06:54:20;20.20;59.10
8945;DHT22;4507;40.232;29.132;2022-11-20T06:56:50;20.30;58.90
8945;DHT22;4507;40.232;29.132;2022-11-20T06:59:19;20.40;58.90
8945;DHT22;4507;40.232;29.132;2022-11-20T07:01:48;20.50;58.80
8945;DHT22;4507;40.232;29.132;2022-11-20T07:04:17;20.60;58.70
8945;DHT22;4507;40.232;29.132;2022-11-20T07:06:45;20.60;58.40
8945;DHT22;4507;40.232;29.132;2022-11-20T07:09:14;20.70;58.00
8945;DHT22;4507;40.232;29.132;2022-11-20T07:11:43;20.80;58.10
8945;DHT22;4507;40.232;29.132;2022-11-20T07:14:13;20.80;57.80
8945;DHT22;4507;40.232;29.132;2022-11-20T07:16:41;20.90;57.60
8945;DHT22;4507;40.232;29.132;2022-11-20T07:19:10;20.90;57.50
8945;DHT22;4507;40.232;29.132;2022-11-20T07:21:38;21.00;57.30
8945;DHT22;4507;40.232;29.132;2022-11-20T07:24:07;21.10;57.10
8945;DHT22;4507;40.232;29.132;2022-11-20T07:26:36;21.10;56.90
8945;DHT22;4507;40.232;29.132;2022-11-20T07:29:06;21.20;57.00
8945;DHT22;4507;40.232;29.132;2022-11-20T07:31:36;21.30;56.90
8945;DHT22;4507;40.232;29.132;2022-11-20T07:34:05;21.50;56.50
8945;DHT22;4507;40.232;29.132;2022-11-20T07:36:33;21.80;56.20
8945;DHT22;4507;40.232;29.132;2022-11-20T07:39:02;22.00;55.80
8945;DHT22;4507;40.232;29.132;2022-11-20T07:41:31;22.20;55.40
8945;DHT22;4507;40.232;29.132;2022-11-20T07:43:59;22.30;54.90
8945;DHT22;4507;40.232;29.132;2022-11-20T07:46:29;22.40;54.40
8945;DHT22;4507;40.232;29.132;2022-11-20T07:48:59;22.50;53.90
8945;DHT22;4507;40.232;29.132;2022-11-20T07:51:27;22.70;53.70
8945;DHT22;4507;40.232;29.132;2022-11-20T07:53:56;22.80;53.30
8945;DHT22;4507;40.232;29.132;2022-11-20T07:56:24;22.90;52.60
8945;DHT22;4507;40.232;29.132;2022-11-20T07:58:53;22.90;52.40
8945;DHT22;4507;40.232;29.132;2022-11-20T08:01:21;23.00;52.40
8945;DHT22;4507;40.232;29.132;2022-11-20T08:03:50;23.10;51.90
8945;DHT22;4507;40.232;29.132;2022-11-20T08:06:20;23.20;51.90
8945;DHT22;4507;40.232;29.132;2022-11-20T08:08:49;23.30;51.60
8945;DHT22;4507;40.232;29.132;2022-11-20T08:11:17;23.40;51.30
8945;DHT22;4507;40.232;29.132;2022-11-20T08:14:03;23.60;51.00
8945;DHT22;4507;40.232;29.132;2022-11-20T08:16:41;23.80;50.70
8945;DHT22;4507;40.232;29.132;2022-11-20T08:19:10;23.80;50.40
8945;DHT22;4507;40.232;29.132;2022-11-20T08:21:40;23.80;50.30
8945;DHT22;4507;40.232;29.132;2022-11-20T08:24:09;23.80;50.10
8945;DHT22;4507;40.232;29.132;2022-11-20T08:26:38;24.00;49.90
8945;DHT22;4507;40.232;29.132;2022-11-20T08:29:07;24.20;49.60
8945;DHT22;4507;40.232;29.132;2022-11-20T08:31:36;24.40;49.50
8945;DHT22;4507;40.232;29.132;2022-11-20T08:34:04;24.70;49.10
8945;DHT22;4507;40.232;29.132;2022-11-20T08:36:35;25.10;48.60
8945;DHT22;4507;40.232;29.132;2022-11-20T08:39:06;25.50;47.90
8945;DHT22;4507;40.232;29.132;2022-11-20T08:41:40;25.90;47.20
8945;DHT22;4507;40.232;29.132;2022-11-20T08:44:09;26.20;46.30
8945;DHT22;4507;40.232;29.132;2022-11-20T08:46:38;26.40;45.60
8945;DHT22;4507;40.232;29.132;2022-11-20T08:49:08;26.70;45.00
8945;DHT22;4507;40.232;29.132;2022-11-20T08:51:37;26.80;44.50
8945;DHT22;4507;40.232;29.132;2022-11-20T08:54:08;27.20;44.00
8945;DHT22;4507;40.232;29.132;2022-11-20T08:56:37;27.50;43.50
8945;DHT22;4507;40.232;29.132;2022-11-20T08:59:06;28.00;43.10
8945;DHT22;4507;40.232;29.132;2022-11-20T09:01:55;28.50;42.00
8945;DHT22;4507;40.232;29.132;2022-11-20T09:04:23;28.90;41.30
8945;DHT22;4507;40.232;29.132;2022-11-20T09:06:52;28.90;40.60
8945;DHT22;4507;40.232;29.132;2022-11-20T09:09:22;28.70;40.10
8945;DHT22;4507;40.232;29.132;2022-11-20T09:11:54;28.50;40.00
8945;DHT22;4507;40.232;29.132;2022-11-20T09:14:22;28.40;40.00
8945;DHT22;4507;40.232;29.132;2022-11-20T09:16:56;28.30;40.30
8945;DHT22;4507;40.232;29.132;2022-11-20T09:19:24;28.30;40.10
8945;DHT22;4507;40.232;29.132;2022-11-20T09:22:07;28.20;40.80
8945;DHT22;4507;40.232;29.132;2022-11-20T09:24:39;28.00;40.40
8945;DHT22;4507;40.232;29.132;2022-11-20T09:27:07;27.90;40.60
8945;DHT22;4507;40.232;29.132;2022-11-20T09:29:36;27.80;40.80
8945;DHT22;4507;40.232;29.132;2022-11-20T09:32:05;27.60;41.00
8945;DHT22;4507;40.232;29.132;2022-11-20T09:34:33;27.50;41.20
8945;DHT22;4507;40.232;29.132;2022-11-20T09:37:02;27.40;40.90
8945;DHT22;4507;40.232;29.132;2022-11-20T09:39:33;27.40;40.80
8945;DHT22;4507;40.232;29.132;2022-11-20T09:42:20;27.30;40.80
8945;DHT22;4507;40.232;29.132;2022-11-20T09:45:00;27.30;40.80
8945;DHT22;4507;40.232;29.132;2022-11-20T09:47:32;27.30;39.70
8945;DHT22;4507;40.232;29.132;2022-11-20T09:50:10;27.30;37.70
8945;DHT22;4507;40.232;29.132;2022-11-20T09:52:41;27.40;36.70
8945;DHT22;4507;40.232;29.132;2022-11-20T09:55:12;27.60;36.20
8945;DHT22;4507;40.232;29.132;2022-11-20T09:57:44;27.60;35.10
8945;DHT22;4507;40.232;29.132;2022-11-20T10:00:14;27.70;34.80
8945;DHT22;4507;40.232;29.132;2022-11-20T10:02:44;27.70;32.70
8945;DHT22;4507;40.232;29.132;2022-11-20T10:05:17;27.70;32.50
8945;DHT22;4507;40.232;29.132;2022-11-20T10:07:47;27.80;32.40
8945;DHT22;4507;40.232;29.132;2022-11-20T10:10:18;27.80;32.60
8945;DHT22;4507;40.232;29.132;2022-11-20T10:12:55;27.70;32.70
8945;DHT22;4507;40.232;29.132;2022-11-20T10:15:45;27.60;31.90
8945;DHT22;4507;40.232;29.132;2022-11-20T10:18:23;27.50;31.40
8945;DHT22;4507;40.232;29.132;2022-11-20T10:20:59;27.50;31.70
8945;DHT22;4507;40.232;29.132;2022-11-20T10:23:35;27.40;32.20
8945;DHT22;4507;40.232;29.132;2022-11-20T10:26:14;27.30;31.80
8945;DHT22;4507;40.232;29.132;2022-11-20T10:28:48;27.20;32.00
8945;DHT22;4507;40.232;29.132;2022-11-20T10:31:28;27.20;32.70
8945;DHT22;4507;40.232;29.132;2022-11-20T10:34:18;27.30;33.00
8945;DHT22;4507;40.232;29.132;2022-11-20T10:36:50;27.40;33.20
8945;DHT22;4507;40.232;29.132;2022-11-20T10:39:22;27.40;32.90
8945;DHT22;4507;40.232;29.132;2022-11-20T10:41:53;27.40;32.40
8945;DHT22;4507;40.232;29.132;2022-11-20T10:44:26;27.30;32.40
8945;DHT22;4507;40.232;29.132;2022-11-20T10:47:13;27.20;32.70
8945;DHT22;4507;40.232;29.132;2022-11-20T10:49:42;27.10;33.10
8945;DHT22;4507;40.232;29.132;2022-11-20T10:52:13;27.00;33.00
8945;DHT22;4507;40.232;29.132;2022-11-20T10:54:46;26.90;32.60
8945;DHT22;4507;40.232;29.132;2022-11-20T10:57:20;26.90;32.10
8945;DHT22;4507;40.232;29.132;2022-11-20T11:00:12;26.80;31.30
8945;DHT22;4507;40.232;29.132;2022-11-20T11:02:42;26.80;31.50
8945;DHT22;4507;40.232;29.132;2022-11-20T11:05:32;26.90;31.70
8945;DHT22;4507;40.232;29.132;2022-11-20T11:08:03;26.80;32.00
8945;DHT22;4507;40.232;29.132;2022-11-20T11:10:37;26.80;32.10
8945;DHT22;4507;40.232;29.132;2022-11-20T11:13:18;26.90;32.20
8945;DHT22;4507;40.232;29.132;2022-11-20T11:15:48;26.90;32.50
8945;DHT22;4507;40.232;29.132;2022-11-20T11:18:24;26.80;32.10
8945;DHT22;4507;40.232;29.132;2022-11-20T11:20:53;26.80;32.40
8945;DHT22;4507;40.232;29.132;2022-11-20T11:23:28;26.80;32.40
8945;DHT22;4507;40.232;29.132;2022-11-20T11:25:58;26.80;32.30
8945;DHT22;4507;40.232;29.132;2022-11-20T11:28:27;26.80;32.20
8945;DHT22;4507;40.232;29.132;2022-11-20T11:30:57;26.70;32.20
8945;DHT22;4507;40.232;29.132;2022-11-20T11:33:26;26.70;32.60
8945;DHT22;4507;40.232;29.132;2022-11-20T11:35:56;26.70;32.60
8945;DHT22;4507;40.232;29.132;2022-11-20T11:38:28;26.70;32.80
8945;DHT22;4507;40.232;29.132;2022-11-20T11:40:58;26.60;33.00
8945;DHT22;4507;40.232;29.132;2022-11-20T11:43:28;26.60;33.00
8945;DHT22;4507;40.232;29.132;2022-11-20T11:49:15;26.50;32.70
8945;DHT22;4507;40.232;29.132;2022-11-20T11:51:56;26.40;33.00
8945;DHT22;4507;40.232;29.132;2022-11-20T11:54:27;26.40;33.40
8945;DHT22;4507;40.232;29.132;2022-11-20T11:56:58;26.40;33.60
8945;DHT22;4507;40.232;29.132;2022-11-20T11:59:39;26.30;33.70
8945;DHT22;4507;40.232;29.132;2022-11-20T12:02:15;26.30;33.90
8945;DHT22;4507;40.232;29.132;2022-11-20T12:04:53;26.30;33.80
8945;DHT22;4507;40.232;29.132;2022-11-20T12:07:26;26.20;33.60
8945;DHT22;4507;40.232;29.132;2022-11-20T12:10:20;26.20;33.10
8945;DHT22;4507;40.232;29.132;2022-11-20T12:12:50;26.20;31.80
8945;DHT22;4507;40.232;29.132;2022-11-20T12:15:28;26.30;32.10
8945;DHT22;4507;40.232;29.132;2022-11-20T12:17:57;26.30;31.50
8945;DHT22;4507;40.232;29.132;2022-11-20T12:20:28;26.40;31.00
8945;DHT22;4507;40.232;29.132;2022-11-20T12:22:59;26.50;31.10
8945;DHT22;4507;40.232;29.132;2022-11-20T12:25:30;26.50;30.70
8945;DHT22;4507;40.232;29.132;2022-11-20T12:28:03;26.50;30.50
8945;DHT22;4507;40.232;29.132;2022-11-20T12:30:35;26.60;31.20
8945;DHT22;4507;40.232;29.132;2022-11-20T12:33:23;26.60;31.50
8945;DHT22;4507;40.232;29.132;2022-11-20T12:35:59;26.60;31.60
8945;DHT22;4507;40.232;29.132;2022-11-20T12:41:19;26.60;31.50
8945;DHT22;4507;40.232;29.132;2022-11-20T12:44:05;26.50;31.60
8945;DHT22;4507;40.232;29.132;2022-11-20T12:47:12;26.50;31.70
8945;DHT22;4507;40.232;29.132;2022-11-20T12:49:44;26.50;31.50
8945;DHT22;4507;40.232;29.132;2022-11-20T12:52:22;26.50;31.80
8945;DHT22;4507;40.232;29.132;2022-11-20T12:55:11;26.50;31.80
8945;DHT22;4507;40.232;29.132;2022-11-20T12:57:43;26.50;31.60
8945;DHT22;4507;40.232;29.132;2022-11-20T13:00:15;26.50;31.30
8945;DHT22;4507;40.232;29.132;2022-11-20T13:02:58;26.50;31.10
8945;DHT22;4507;40.232;29.132;2022-11-20T13:05:41;26.50;31.10
8945;DHT22;4507;40.232;29.132;2022-11-20T13:08:20;26.50;31.30
8945;DHT22;4507;40.232;29.132;2022-11-20T13:10:56;26.50;31.40
8945;DHT22;4507;40.232;29.132;2022-11-20T13:13:35;26.50;31.30
8945;DHT22;4507;40.232;29.132;2022-11-20T13:16:10;26.50;31.00
8945;DHT22;4507;40.232;29.132;2022-11-20T13:18:43;26.50;31.00
8945;DHT22;4507;40.232;29.132;2022-11-20T13:21:21;26.50;31.20
8945;DHT22;4507;40.232;29.132;2022-11-20T13:23:51;26.60;30.80
8945;DHT22;4507;40.232;29.132;2022-11-20T13:26:22;26.60;30.50
8945;DHT22;4507;40.232;29.132;2022-11-20T13:29:03;26.60;30.70
8945;DHT22;4507;40.232;29.132;2022-11-20T13:31:37;26.60;30.70
8945;DHT22;4507;40.232;29.132;2022-11-20T13:34:28;26.60;30.80
8945;DHT22;4507;40.232;29.132;2022-11-20T13:36:58;26.60;30.40
8945;DHT22;4507;40.232;29.132;2022-11-20T13:39:30;26.60;30.40
8945;DHT22;4507;40.232;29.132;2022-11-20T13:41:59;26.60;30.80
8945;DHT22;4507;40.232;29.132;2022-11-20T13:44:30;26.60;31.10
8945;DHT22;4507;40.232;29.132;2022-11-20T13:46:58;26.60;31.70
8945;DHT22;4507;40.232;29.132;2022-11-20T13:49:29;26.60;32.10
8945;DHT22;4507;40.232;29.132;2022-11-20T13:57:33;26.60;32.60
8945;DHT22;4507;40.232;29.132;2022-11-20T14:00:16;26.60;32.80
8945;DHT22;4507;40.232;29.132;2022-11-20T14:02:48;26.60;33.00
8945;DHT22;4507;40.232;29.132;2022-11-20T14:05:19;26.60;33.00
8945;DHT22;4507;40.232;29.132;2022-11-20T14:07:49;26.60;33.10
8945;DHT22;4507;40.232;29.132;2022-11-20T14:10:19;26.60;33.10
8945;DHT22;4507;40.232;29.132;2022-11-20T14:12:55;26.50;33.10
8945;DHT22;4507;40.232;29.132;2022-11-20T14:15:25;26.50;33.10
8945;DHT22;4507;40.232;29.132;2022-11-20T14:17:54;26.50;33.20
8945;DHT22;4507;40.232;29.132;2022-11-20T14:20:23;26.40;33.20
8945;DHT22;4507;40.232;29.132;2022-11-20T14:22:53;26.40;33.40
8945;DHT22;4507;40.232;29.132;2022-11-20T14:25:23;26.40;33.40
8945;DHT22;4507;40.232;29.132;2022-11-20T14:28:20;26.30;33.50
8945;DHT22;4507;40.232;29.132;2022-11-20T14:30:52;26.20;33.60
8945;DHT22;4507;40.232;29.132;2022-11-20T14:33:22;26.20;33.80
8945;DHT22;4507;40.232;29.132;2022-11-20T14:35:52;26.10;34.00
8945;DHT22;4507;40.232;29.132;2022-11-20T14:38:23;26.00;34.30
8945;DHT22;4507;40.232;29.132;2022-11-20T14:41:16;25.90;34.80
8945;DHT22;4507;40.232;29.132;2022-11-20T14:43:47;25.80;35.30
8945;DHT22;4507;40.232;29.132;2022-11-20T14:46:16;25.60;35.90
8945;DHT22;4507;40.232;29.132;2022-11-20T14:48:46;25.50;36.30
8945;DHT22;4507;40.232;29.132;2022-11-20T14:51:31;25.30;36.80
8945;DHT22;4507;40.232;29.132;2022-11-20T14:54:10;25.20;37.20
8945;DHT22;4507;40.232;29.132;2022-11-20T14:56:41;25.00;37.50
8945;DHT22;4507;40.232;29.132;2022-11-20T14:59:22;24.90;38.00
8945;DHT22;4507;40.232;29.132;2022-11-20T15:01:56;24.80;38.30
8945;DHT22;4507;40.232;29.132;2022-11-20T15:04:26;24.70;38.60
8945;DHT22;4507;40.232;29.132;2022-11-20T15:06:58;24.60;38.80
8945;DHT22;4507;40.232;29.132;2022-11-20T15:09:27;24.60;39.10
8945;DHT22;4507;40.232;29.132;2022-11-20T15:11:58;24.50;39.20
8945;DHT22;4507;40.232;29.132;2022-11-20T15:14:30;24.40;39.30
8945;DHT22;4507;40.232;29.132;2022-11-20T15:17:01;24.40;39.50
8945;DHT22;4507;40.232;29.132;2022-11-20T15:19:30;24.40;39.60
8945;DHT22;4507;40.232;29.132;2022-11-20T15:21:59;24.40;39.80
8945;DHT22;4507;40.232;29.132;2022-11-20T15:24:28;24.30;39.80
8945;DHT22;4507;40.232;29.132;2022-11-20T15:26:57;24.30;39.90
8945;DHT22;4507;40.232;29.132;2022-11-20T15:29:26;24.30;39.90
8945;DHT22;4507;40.232;29.132;2022-11-20T15:31:59;24.30;40.00
8945;DHT22;4507;40.232;29.132;2022-11-20T15:34:29;24.30;40.00
8945;DHT22;4507;40.232;29.132;2022-11-20T15:37:02;24.30;40.10
8945;DHT22;4507;40.232;29.132;2022-11-20T15:39:30;24.30;40.30
8945;DHT22;4507;40.232;29.132;2022-11-20T15:41:59;24.30;40.20
8945;DHT22;4507;40.232;29.132;2022-11-20T15:44:27;24.30;40.40
8945;DHT22;4507;40.232;29.132;2022-11-20T15:46:56;24.30;40.50
8945;DHT22;4507;40.232;29.132;2022-11-20T15:49:26;24.30;40.70
8945;DHT22;4507;40.232;29.132;2022-11-20T15:52:13;24.20;40.80
8945;DHT22;4507;40.232;29.132;2022-11-20T15:54:42;24.20;40.90
8945;DHT22;4507;40.232;29.132;2022-11-20T15:57:11;24.20;41.10
8945;DHT22;4507;40.232;29.132;2022-11-20T15:59:39;24.10;41.10
8945;DHT22;4507;40.232;29.132;2022-11-20T16:02:09;24.10;41.30
8945;DHT22;4507;40.232;29.132;2022-11-20T16:04:46;24.00;41.40
8945;DHT22;4507;40.232;29.132;2022-11-20T16:07:14;24.00;41.60
8945;DHT22;4507;40.232;29.132;2022-11-20T16:09:43;24.00;41.80
8945;DHT22;4507;40.232;29.132;2022-11-20T16:12:12;23.90;41.90
8945;DHT22;4507;40.232;29.132;2022-11-20T16:15:01;23.90;42.00
8945;DHT22;4507;40.232;29.132;2022-11-20T16:17:47;23.80;42.10
8945;DHT22;4507;40.232;29.132;2022-11-20T16:20:17;23.70;42.30
8945;DHT22;4507;40.232;29.132;2022-11-20T16:23:04;23.70;42.50
8945;DHT22;4507;40.232;29.132;2022-11-20T16:25:33;23.70;42.80